^^
Station Historical Data
Daily Summary for January 17, 2018 Units:  English    Metric   Both
« Previous Day
Next Day »
Daily Weekly Monthly Yearly Custom
  High: Low: Average:
Temperature: TemperatureF °F 75.2 °F 79.9 °F
Dew Point: DewpointF °F 45.9 °F 48.1 °F
Humidity: Humidity% 26% 32%
Wind Speed: WindSpeedMPHmph 0.0mph 4.7mph
Wind Gust: WindSpeedGustMPHmph - -
Wind- - SSE
Pressure: PressureIn in 29.56 in -
Precipitation: 0.00 in    
Historical Graphs
 
 
Tabular Data for January 17, 2018
Time Temperature Dew Point Pressure Wind Wind Speed Wind Gust Humidity Rainfall Rate (Hourly) solar Conditions
TemperatureF °F DewpointF °F PressureIn in Calm     Humidity% HourlyPrecipIn in SoftwareType W/m2 Conditions
09:00 75.9 °F 47.8 °F 29.66 in North 6.9 mph 11.0 mph 37% 0.00 in meteobridge W/m2
09:06 75.9 °F 47.8 °F 29.66 in NNW 4.9 mph 10.0 mph 37% 0.00 in meteobridge W/m2
09:14 75.4 °F 48.0 °F 29.66 in NNE 6.9 mph 11.0 mph 38% 0.00 in meteobridge W/m2
09:21 75.4 °F 48.7 °F 29.66 in NNW 8.9 mph 14.0 mph 39% 0.00 in meteobridge W/m2
09:27 75.2 °F 48.6 °F 29.66 in NNE 2.0 mph 11.0 mph 39% 0.00 in meteobridge W/m2
09:33 75.6 °F 48.2 °F 29.67 in NNW 8.1 mph 13.0 mph 38% 0.00 in meteobridge W/m2
09:39 75.4 °F 48.7 °F 29.67 in North 4.0 mph 10.0 mph 39% 0.00 in meteobridge W/m2
09:47 75.7 °F 48.4 °F 29.67 in WNW 2.9 mph 10.0 mph 38% 0.00 in meteobridge W/m2
09:53 76.3 °F 48.7 °F 29.66 in NNW 8.1 mph 11.0 mph 38% 0.00 in meteobridge W/m2
09:59 77.4 °F 49.1 °F 29.67 in North 4.9 mph 11.0 mph 37% 0.00 in meteobridge W/m2
10:05 78.1 °F 48.9 °F 29.67 in NNW 2.9 mph 11.0 mph 36% 0.00 in meteobridge W/m2
10:11 79.0 °F 48.9 °F 29.67 in NW 0.9 mph 5.0 mph 35% 0.00 in meteobridge W/m2
10:18 79.5 °F 50.2 °F 29.67 in SE 4.0 mph 6.0 mph 36% 0.00 in meteobridge W/m2
10:30 79.9 °F 49.8 °F 29.67 in NE 6.9 mph 14.0 mph 35% 0.00 in meteobridge W/m2
10:38 80.8 °F 49.8 °F 29.66 in SE 2.0 mph 4.0 mph 34% 0.00 in meteobridge W/m2
10:46 82.8 °F 49.8 °F 29.65 in North 13.0 mph 13.0 mph 32% 0.00 in meteobridge W/m2
10:52 81.3 °F 49.5 °F 29.65 in North 6.0 mph 6.0 mph 33% 0.00 in meteobridge W/m2
10:58 81.5 °F 48.7 °F 29.65 in North 12.1 mph 14.0 mph 32% 0.00 in meteobridge W/m2
11:04 81.3 °F 48.6 °F 29.65 in North 4.9 mph 15.0 mph 32% 0.00 in meteobridge W/m2
11:11 81.1 °F 48.6 °F 29.65 in North 0.9 mph 10.0 mph 32% 0.00 in meteobridge W/m2
11:17 81.3 °F 48.6 °F 29.65 in NE 8.1 mph 15.0 mph 32% 0.00 in meteobridge W/m2
11:23 82.2 °F 49.5 °F 29.65 in NNW 4.0 mph 6.0 mph 32% 0.00 in meteobridge W/m2
11:29 82.6 °F 49.8 °F 29.65 in North 8.1 mph 13.0 mph 32% 0.00 in meteobridge W/m2
11:35 82.6 °F 48.9 °F 29.65 in NNE 0.9 mph 12.0 mph 31% 0.00 in meteobridge W/m2
11:41 82.2 °F 48.6 °F 29.65 in Calm   5.0 mph 31% 0.00 in meteobridge W/m2
11:47 83.7 °F 49.8 °F 29.65 in NNE 6.9 mph 11.0 mph 31% 0.00 in meteobridge W/m2
11:53 82.2 °F 49.5 °F 29.64 in Calm   3.0 mph 32% 0.00 in meteobridge W/m2
11:59 82.6 °F 49.8 °F 29.64 in NNE 14.1 mph 18.0 mph 32% 0.00 in meteobridge W/m2
12:05 83.8 °F 50.0 °F 29.64 in NE 11.0 mph 17.0 mph 31% 0.00 in meteobridge W/m2
12:12 83.7 °F 48.9 °F 29.64 in NNW 8.9 mph 16.0 mph 30% 0.00 in meteobridge W/m2
12:18 82.0 °F 48.4 °F 29.64 in Calm   3.0 mph 31% 0.00 in meteobridge W/m2
12:24 81.9 °F 48.2 °F 29.64 in North 13.0 mph 13.0 mph 31% 0.00 in meteobridge W/m2
12:30 81.1 °F 48.6 °F 29.64 in East 0.9 mph 8.0 mph 32% 0.00 in meteobridge W/m2
12:36 81.0 °F 48.4 °F 29.63 in ENE 0.9 mph 3.0 mph 32% 0.00 in meteobridge W/m2
12:42 81.7 °F 48.9 °F 29.63 in Calm   4.0 mph 32% 0.00 in meteobridge W/m2
12:48 82.4 °F 48.7 °F 29.63 in South 4.0 mph 10.0 mph 31% 0.00 in meteobridge W/m2
12:54 84.2 °F 49.5 °F 29.63 in North 11.0 mph 15.0 mph 30% 0.00 in meteobridge W/m2
13:05 83.7 °F 48.9 °F 29.63 in NE 0.9 mph 6.0 mph 30% 0.00 in meteobridge W/m2
13:15 83.5 °F 47.8 °F 29.63 in North 4.0 mph 11.0 mph 29% 0.00 in meteobridge W/m2
13:21 82.8 °F 48.2 °F 29.63 in North 12.1 mph 12.1 mph 30% 0.00 in meteobridge W/m2
13:27 82.4 °F 47.8 °F 29.63 in North 0.9 mph 10.0 mph 30% 0.00 in meteobridge W/m2
13:33 82.9 °F 48.4 °F 29.63 in Calm   4.0 mph 30% 0.00 in meteobridge W/m2
13:40 83.3 °F 48.6 °F 29.63 in Calm   3.0 mph 30% 0.00 in meteobridge W/m2
13:46 84.6 °F 48.7 °F 29.62 in ESE 4.0 mph 7.0 mph 29% 0.00 in meteobridge W/m2
13:52 85.8 °F 49.8 °F 29.62 in SE 0.9 mph 9.0 mph 29% 0.00 in meteobridge W/m2
14:00 84.7 °F 48.9 °F 29.61 in Calm   4.0 mph 29% 0.00 in meteobridge W/m2
14:12 84.6 °F 47.8 °F 29.61 in North 4.9 mph 13.0 mph 28% 0.00 in meteobridge W/m2
14:18 83.5 °F 47.8 °F 29.61 in NNW 2.0 mph 7.0 mph 29% 0.00 in meteobridge W/m2
14:24 83.5 °F 46.9 °F 29.61 in NNW 2.0 mph 3.0 mph 28% 0.00 in meteobridge W/m2
14:30 82.9 °F 47.5 °F 29.61 in NNE 6.9 mph 13.0 mph 29% 0.00 in meteobridge W/m2
14:37 82.6 °F 47.1 °F 29.60 in Calm   4.0 mph 29% 0.00 in meteobridge W/m2
14:43 83.3 °F 47.7 °F 29.60 in North 4.0 mph 7.0 mph 29% 0.00 in meteobridge W/m2
14:49 83.5 °F 47.8 °F 29.60 in ENE 4.0 mph 5.0 mph 29% 0.00 in meteobridge W/m2
14:55 83.7 °F 48.0 °F 29.60 in NNE 2.9 mph 6.0 mph 29% 0.00 in meteobridge W/m2
15:01 84.2 °F 47.5 °F 29.59 in NE 6.0 mph 11.0 mph 28% 0.00 in meteobridge W/m2
15:07 86.2 °F 48.2 °F 29.59 in NNE 4.9 mph 7.0 mph 27% 0.00 in meteobridge W/m2
15:13 86.5 °F 47.7 °F 29.59 in East 4.0 mph 5.0 mph 26% 0.00 in meteobridge W/m2
15:19 87.3 °F 48.2 °F 29.58 in SE 4.0 mph 7.0 mph 26% 0.00 in meteobridge W/m2
15:25 85.8 °F 46.9 °F 29.58 in Calm   9.0 mph 26% 0.00 in meteobridge W/m2
15:38 84.7 °F 47.1 °F 29.57 in NE 6.0 mph 11.0 mph 27% 0.00 in meteobridge W/m2
15:44 83.8 °F 46.2 °F 29.57 in NNE 2.0 mph 7.0 mph 27% 0.00 in meteobridge W/m2
15:50 83.3 °F 45.9 °F 29.57 in Calm   4.0 mph 27% 0.00 in meteobridge W/m2
15:56 83.1 °F 46.6 °F 29.57 in ESE 4.0 mph 5.0 mph 28% 0.00 in meteobridge W/m2
16:02 81.9 °F 48.2 °F 29.57 in South 4.0 mph 7.0 mph 31% 0.00 in meteobridge W/m2
16:08 80.4 °F 47.8 °F 29.57 in SSE 2.0 mph 5.0 mph 32% 0.00 in meteobridge W/m2
16:14 80.2 °F 50.9 °F 29.57 in ESE 0.9 mph 4.0 mph 36% 0.00 in meteobridge W/m2
16:21 79.9 °F 50.5 °F 29.56 in ESE 2.0 mph 4.0 mph 36% 0.00 in meteobridge W/m2
16:27 79.2 °F 51.4 °F 29.56 in South 6.9 mph 7.0 mph 38% 0.00 in meteobridge W/m2
16:33 78.6 °F 50.2 °F 29.56 in SSE 6.0 mph 11.0 mph 37% 0.00 in meteobridge W/m2
16:43 78.1 °F 48.2 °F 29.56 in SSE 2.9 mph 6.0 mph 35% 0.00 in meteobridge W/m2
16:49 78.1 °F 48.2 °F 29.56 in SSE 2.9 mph 6.0 mph 35% 0.00 in meteobridge W/m2
16:55 78.4 °F 48.6 °F 29.56 in South 10.1 mph 10.1 mph 35% 0.00 in meteobridge W/m2
17:01 77.5 °F 48.6 °F 29.57 in South 10.1 mph 12.0 mph 36% 0.00 in meteobridge W/m2
17:08 76.8 °F 49.3 °F 29.57 in South 12.1 mph 18.0 mph 38% 0.00 in meteobridge W/m2
17:14 76.5 °F 49.6 °F 29.56 in SSE 10.1 mph 14.0 mph 39% 0.00 in meteobridge W/m2
17:20 76.3 °F 49.5 °F 29.56 in SSE 6.0 mph 14.0 mph 39% 0.00 in meteobridge W/m2
17:26 76.3 °F 49.5 °F 29.56 in SSE 8.9 mph 11.0 mph 39% 0.00 in meteobridge W/m2
17:32 75.9 °F 49.1 °F 29.56 in South 4.9 mph 11.0 mph 39% 0.00 in meteobridge W/m2
17:38 75.9 °F 49.8 °F 29.57 in South 2.0 mph 5.0 mph 40% 0.00 in meteobridge W/m2
17:44 75.7 °F 49.6 °F 29.57 in SSE 0.9 mph 5.0 mph 40% 0.00 in meteobridge W/m2
17:51 75.6 °F 49.5 °F 29.59 in SSE 6.0 mph 6.0 mph 40% 0.00 in meteobridge W/m2
18:03 75.6 °F 49.5 °F 29.60 in SSE 6.0 mph -999.0 mph 40% 0.00 in meteobridge W/m2
Regenstein, Windhoek, Namibia
Compliments of Weather Underground - 2.5 mb